This is the latest recevied weather packets stored in our database for station/object N5SNT-2. If no packets are shown the sender has not sent any weather packets the latest 10 day(s).
| Time | Temp. | Humidity | Pressure | Rain* | Wind** | Luminosity | Snow |
|---|---|---|---|---|---|---|---|
| 1777826543 | 23.33° C | 49% | 1026 hPa | 0 mm | - | 829 W/m² | - |
| 1777826243 | 22.78° C | 50% | 1026 hPa | 0 mm | - | 817 W/m² | - |
| 1777825943 | 22.22° C | 49% | 1026 hPa | 0 mm | - | 809 W/m² | - |
| 1777825643 | 22.22° C | 51% | 1026 hPa | 0 mm | - | 798 W/m² | - |
| 1777825344 | 21.67° C | 51% | 1026 hPa | 0 mm | - | 783 W/m² | - |
| 1777825043 | 22.22° C | 49% | 1026 hPa | 0 mm | - | 769 W/m² | - |
| 1777824143 | 22.22° C | 50% | 1026 hPa | 0 mm | - | 726 W/m² | - |
| 1777823844 | 22.22° C | 50% | 1026 hPa | 0 mm | - | 710 W/m² | - |
| 1777823544 | 22.22° C | 50% | 1026 hPa | 0 mm | - | 689 W/m² | - |
| 1777823244 | 22.22° C | 49% | 1026 hPa | 0 mm | - | 678 W/m² | - |
| 1777822044 | 21.67° C | 53% | 1026 hPa | 0 mm | - | 604 W/m² | - |
| 1777821746 | 21.11° C | 52% | 1026 hPa | 0 mm | - | 586 W/m² | - |
| 1777821143 | 21.11° C | 56% | 1026 hPa | 0 mm | - | 547 W/m² | - |
| 1777819944 | 20.56° C | 60% | 1026 hPa | 0 mm | - | 459 W/m² | - |
| 1777818444 | 18.33° C | 68% | 1026 hPa | 0 mm | - | 355 W/m² | - |
| 1777818144 | 17.78° C | 71% | 1026 hPa | 0 mm | - | 316 W/m² | - |
| 1777817543 | 17.78° C | 73% | 1025 hPa | 0 mm | - | 130 W/m² | - |
| 1777817244 | 17.22° C | 75% | 1025 hPa | 0 mm | - | 230 W/m² | - |
| 1777816944 | 16.67° C | 76% | 1025 hPa | 0 mm | - | 205 W/m² | - |
| 1777816643 | 16.67° C | 77% | 1025 hPa | 0 mm | - | 189 W/m² | - |
| 1777816044 | 15.56° C | 81% | 1025 hPa | 0 mm | - | 163 W/m² | - |
| 1777814844 | 14.44° C | 83% | 1025 hPa | 0 mm | - | 59 W/m² | - |
| 1777814543 | 13.89° C | 84% | 1025 hPa | 0 mm | - | 100 W/m² | - |
| 1777814244 | 13.89° C | 84% | 1025 hPa | 0 mm | - | 88 W/m² | - |
| 1777813344 | 12.78° C | 88% | 1025 hPa | 0 mm | - | 61 W/m² | - |
* Rain latest hour (hover to see other rain measurements)
** Current wind speed in m/s (hover to see current wind gust speed)